sensor_id;sensor_type;location;lat;lon;timestamp;P1;durP1;ratioP1;P2;durP2;ratioP2
24409;SDS011;12543;53.364;-1.504;2024-01-25T00:01:09;11.82;;;3.20;;
24409;SDS011;12543;53.364;-1.504;2024-01-25T00:03:37;12.82;;;3.72;;
24409;SDS011;12543;53.364;-1.504;2024-01-25T00:06:05;13.57;;;3.53;;
24409;SDS011;12543;53.364;-1.504;2024-01-25T00:08:34;16.00;;;3.63;;
24409;SDS011;12543;53.364;-1.504;2024-01-25T00:11:02;19.25;;;4.28;;
24409;SDS011;12543;53.364;-1.504;2024-01-25T00:13:30;16.27;;;3.60;;
24409;SDS011;12543;53.364;-1.504;2024-01-25T00:15:57;17.10;;;4.15;;
24409;SDS011;12543;53.364;-1.504;2024-01-25T00:18:25;11.10;;;3.78;;
24409;SDS011;12543;53.364;-1.504;2024-01-25T00:20:55;15.68;;;3.70;;
24409;SDS011;12543;53.364;-1.504;2024-01-25T00:23:24;13.02;;;3.80;;
24409;SDS011;12543;53.364;-1.504;2024-01-25T00:25:51;14.57;;;4.10;;
24409;SDS011;12543;53.364;-1.504;2024-01-25T00:28:19;16.23;;;4.18;;
24409;SDS011;12543;53.364;-1.504;2024-01-25T00:30:47;15.27;;;4.13;;
24409;SDS011;12543;53.364;-1.504;2024-01-25T00:33:14;16.48;;;4.15;;
24409;SDS011;12543;53.364;-1.504;2024-01-25T00:35:42;18.83;;;3.53;;
24409;SDS011;12543;53.364;-1.504;2024-01-25T00:38:10;18.38;;;4.75;;
24409;SDS011;12543;53.364;-1.504;2024-01-25T00:40:37;10.88;;;3.05;;
24409;SDS011;12543;53.364;-1.504;2024-01-25T00:43:05;11.53;;;3.10;;
24409;SDS011;12543;53.364;-1.504;2024-01-25T00:45:33;13.00;;;4.15;;
24409;SDS011;12543;53.364;-1.504;2024-01-25T00:48:00;15.43;;;3.67;;
24409;SDS011;12543;53.364;-1.504;2024-01-25T00:50:28;15.30;;;3.92;;
24409;SDS011;12543;53.364;-1.504;2024-01-25T00:52:56;14.88;;;3.83;;
24409;SDS011;12543;53.364;-1.504;2024-01-25T00:55:24;16.48;;;4.30;;
24409;SDS011;12543;53.364;-1.504;2024-01-25T00:57:52;10.27;;;3.50;;
24409;SDS011;12543;53.364;-1.504;2024-01-25T01:00:20;14.38;;;3.47;;
24409;SDS011;12543;53.364;-1.504;2024-01-25T01:02:47;17.20;;;3.63;;
24409;SDS011;12543;53.364;-1.504;2024-01-25T01:05:16;15.23;;;3.85;;
24409;SDS011;12543;53.364;-1.504;2024-01-25T01:07:44;11.85;;;3.65;;
24409;SDS011;12543;53.364;-1.504;2024-01-25T01:10:12;12.50;;;3.92;;
24409;SDS011;12543;53.364;-1.504;2024-01-25T01:12:41;15.55;;;4.28;;
24409;SDS011;12543;53.364;-1.504;2024-01-25T01:15:08;13.38;;;3.80;;
24409;SDS011;12543;53.364;-1.504;2024-01-25T01:17:36;12.10;;;3.05;;
24409;SDS011;12543;53.364;-1.504;2024-01-25T01:20:04;17.03;;;4.43;;
24409;SDS011;12543;53.364;-1.504;2024-01-25T01:22:31;13.45;;;3.85;;
24409;SDS011;12543;53.364;-1.504;2024-01-25T01:24:59;19.25;;;4.57;;
24409;SDS011;12543;53.364;-1.504;2024-01-25T01:27:26;20.73;;;4.07;;
24409;SDS011;12543;53.364;-1.504;2024-01-25T01:29:54;13.45;;;3.85;;
24409;SDS011;12543;53.364;-1.504;2024-01-25T01:32:21;12.65;;;3.42;;
24409;SDS011;12543;53.364;-1.504;2024-01-25T01:34:49;15.38;;;4.55;;
24409;SDS011;12543;53.364;-1.504;2024-01-25T01:37:16;16.17;;;3.70;;
24409;SDS011;12543;53.364;-1.504;2024-01-25T01:39:44;13.38;;;3.17;;
24409;SDS011;12543;53.364;-1.504;2024-01-25T01:42:12;14.77;;;4.00;;
24409;SDS011;12543;53.364;-1.504;2024-01-25T01:44:40;16.27;;;3.70;;
24409;SDS011;12543;53.364;-1.504;2024-01-25T01:47:07;24.03;;;4.63;;
24409;SDS011;12543;53.364;-1.504;2024-01-25T01:49:35;17.23;;;4.95;;
24409;SDS011;12543;53.364;-1.504;2024-01-25T01:52:03;16.08;;;3.75;;
24409;SDS011;12543;53.364;-1.504;2024-01-25T01:54:31;16.52;;;3.75;;
24409;SDS011;12543;53.364;-1.504;2024-01-25T01:56:58;13.03;;;3.50;;
24409;SDS011;12543;53.364;-1.504;2024-01-25T01:59:26;12.68;;;3.53;;
24409;SDS011;12543;53.364;-1.504;2024-01-25T02:01:55;13.13;;;3.70;;
24409;SDS011;12543;53.364;-1.504;2024-01-25T02:04:23;16.63;;;3.67;;
24409;SDS011;12543;53.364;-1.504;2024-01-25T02:06:50;13.03;;;3.10;;
24409;SDS011;12543;53.364;-1.504;2024-01-25T02:09:18;10.33;;;2.97;;
24409;SDS011;12543;53.364;-1.504;2024-01-25T02:11:46;14.38;;;3.17;;
24409;SDS011;12543;53.364;-1.504;2024-01-25T02:14:14;11.90;;;2.80;;
24409;SDS011;12543;53.364;-1.504;2024-01-25T02:16:41;12.10;;;3.17;;
24409;SDS011;12543;53.364;-1.504;2024-01-25T02:19:12;16.52;;;3.58;;
24409;SDS011;12543;53.364;-1.504;2024-01-25T02:21:40;10.93;;;3.08;;
24409;SDS011;12543;53.364;-1.504;2024-01-25T02:24:07;13.27;;;3.77;;
24409;SDS011;12543;53.364;-1.504;2024-01-25T02:26:36;16.55;;;3.63;;
24409;SDS011;12543;53.364;-1.504;2024-01-25T02:29:04;16.27;;;3.38;;
24409;SDS011;12543;53.364;-1.504;2024-01-25T02:31:32;10.40;;;2.80;;
24409;SDS011;12543;53.364;-1.504;2024-01-25T02:33:59;10.75;;;2.92;;
24409;SDS011;12543;53.364;-1.504;2024-01-25T02:36:27;12.55;;;3.67;;
24409;SDS011;12543;53.364;-1.504;2024-01-25T02:38:55;13.80;;;3.40;;
24409;SDS011;12543;53.364;-1.504;2024-01-25T02:41:22;17.20;;;3.90;;
24409;SDS011;12543;53.364;-1.504;2024-01-25T02:43:50;18.02;;;3.85;;
24409;SDS011;12543;53.364;-1.504;2024-01-25T02:46:17;11.35;;;2.95;;
24409;SDS011;12543;53.364;-1.504;2024-01-25T02:48:45;17.47;;;3.60;;
24409;SDS011;12543;53.364;-1.504;2024-01-25T02:51:13;16.20;;;3.42;;
24409;SDS011;12543;53.364;-1.504;2024-01-25T02:53:41;13.50;;;3.40;;
24409;SDS011;12543;53.364;-1.504;2024-01-25T02:56:08;12.75;;;3.67;;
24409;SDS011;12543;53.364;-1.504;2024-01-25T02:58:36;14.73;;;3.45;;
24409;SDS011;12543;53.364;-1.504;2024-01-25T03:01:03;12.48;;;3.67;;
24409;SDS011;12543;53.364;-1.504;2024-01-25T03:03:31;16.67;;;3.90;;
24409;SDS011;12543;53.364;-1.504;2024-01-25T03:05:59;13.70;;;3.67;;
24409;SDS011;12543;53.364;-1.504;2024-01-25T03:08:27;22.30;;;4.85;;
24409;SDS011;12543;53.364;-1.504;2024-01-25T03:10:54;17.15;;;3.97;;
24409;SDS011;12543;53.364;-1.504;2024-01-25T03:13:23;17.48;;;5.22;;
24409;SDS011;12543;53.364;-1.504;2024-01-25T03:15:50;19.38;;;5.47;;
24409;SDS011;12543;53.364;-1.504;2024-01-25T03:18:18;16.90;;;4.33;;
24409;SDS011;12543;53.364;-1.504;2024-01-25T03:20:46;14.10;;;4.20;;
24409;SDS011;12543;53.364;-1.504;2024-01-25T03:23:17;17.73;;;4.10;;
24409;SDS011;12543;53.364;-1.504;2024-01-25T03:25:45;13.98;;;4.38;;
24409;SDS011;12543;53.364;-1.504;2024-01-25T03:28:12;13.17;;;4.00;;
24409;SDS011;12543;53.364;-1.504;2024-01-25T03:30:42;14.57;;;3.50;;
24409;SDS011;12543;53.364;-1.504;2024-01-25T03:33:09;11.85;;;3.55;;
24409;SDS011;12543;53.364;-1.504;2024-01-25T03:35:37;12.82;;;3.70;;
24409;SDS011;12543;53.364;-1.504;2024-01-25T03:38:05;13.40;;;3.53;;
24409;SDS011;12543;53.364;-1.504;2024-01-25T03:40:33;11.83;;;4.10;;
24409;SDS011;12543;53.364;-1.504;2024-01-25T03:43:00;12.07;;;4.03;;
24409;SDS011;12543;53.364;-1.504;2024-01-25T03:45:44;20.48;;;4.63;;
24409;SDS011;12543;53.364;-1.504;2024-01-25T03:48:12;21.23;;;5.20;;
24409;SDS011;12543;53.364;-1.504;2024-01-25T03:50:39;17.65;;;4.68;;
24409;SDS011;12543;53.364;-1.504;2024-01-25T03:53:07;15.68;;;4.00;;
24409;SDS011;12543;53.364;-1.504;2024-01-25T03:55:34;16.55;;;4.20;;
24409;SDS011;12543;53.364;-1.504;2024-01-25T03:58:02;18.88;;;5.00;;
24409;SDS011;12543;53.364;-1.504;2024-01-25T04:00:29;22.92;;;5.13;;
24409;SDS011;12543;53.364;-1.504;2024-01-25T04:02:57;18.13;;;4.35;;
24409;SDS011;12543;53.364;-1.504;2024-01-25T04:05:24;12.60;;;3.67;;
24409;SDS011;12543;53.364;-1.504;2024-01-25T04:07:53;18.52;;;4.10;;
24409;SDS011;12543;53.364;-1.504;2024-01-25T04:10:20;13.35;;;3.78;;
24409;SDS011;12543;53.364;-1.504;2024-01-25T04:12:48;12.07;;;3.55;;
24409;SDS011;12543;53.364;-1.504;2024-01-25T04:15:16;14.63;;;3.77;;
24409;SDS011;12543;53.364;-1.504;2024-01-25T04:17:44;12.77;;;3.30;;
24409;SDS011;12543;53.364;-1.504;2024-01-25T04:20:11;12.40;;;2.95;;
24409;SDS011;12543;53.364;-1.504;2024-01-25T04:22:39;14.00;;;4.13;;
24409;SDS011;12543;53.364;-1.504;2024-01-25T04:25:07;15.00;;;4.25;;
24409;SDS011;12543;53.364;-1.504;2024-01-25T04:27:36;19.13;;;4.38;;
24409;SDS011;12543;53.364;-1.504;2024-01-25T04:30:05;25.90;;;5.80;;
24409;SDS011;12543;53.364;-1.504;2024-01-25T04:32:32;18.33;;;4.82;;
24409;SDS011;12543;53.364;-1.504;2024-01-25T04:35:00;21.73;;;5.13;;
24409;SDS011;12543;53.364;-1.504;2024-01-25T04:37:28;21.13;;;4.80;;
24409;SDS011;12543;53.364;-1.504;2024-01-25T04:39:55;19.52;;;5.13;;
24409;SDS011;12543;53.364;-1.504;2024-01-25T04:42:23;19.17;;;4.82;;
24409;SDS011;12543;53.364;-1.504;2024-01-25T04:44:50;20.88;;;5.35;;
24409;SDS011;12543;53.364;-1.504;2024-01-25T04:47:18;18.83;;;5.72;;
24409;SDS011;12543;53.364;-1.504;2024-01-25T04:49:45;19.38;;;5.85;;
24409;SDS011;12543;53.364;-1.504;2024-01-25T04:52:13;18.23;;;5.87;;
24409;SDS011;12543;53.364;-1.504;2024-01-25T04:54:40;18.77;;;6.20;;
24409;SDS011;12543;53.364;-1.504;2024-01-25T04:57:08;17.10;;;6.05;;
24409;SDS011;12543;53.364;-1.504;2024-01-25T04:59:35;28.05;;;6.95;;
24409;SDS011;12543;53.364;-1.504;2024-01-25T05:02:03;23.48;;;6.70;;
24409;SDS011;12543;53.364;-1.504;2024-01-25T05:04:31;25.50;;;7.77;;
24409;SDS011;12543;53.364;-1.504;2024-01-25T05:06:58;22.85;;;6.93;;
24409;SDS011;12543;53.364;-1.504;2024-01-25T05:09:26;19.50;;;6.13;;
24409;SDS011;12543;53.364;-1.504;2024-01-25T05:11:54;17.17;;;4.97;;
24409;SDS011;12543;53.364;-1.504;2024-01-25T05:14:24;15.32;;;4.85;;
24409;SDS011;12543;53.364;-1.504;2024-01-25T05:16:52;17.83;;;4.85;;
24409;SDS011;12543;53.364;-1.504;2024-01-25T05:19:19;16.30;;;4.97;;
24409;SDS011;12543;53.364;-1.504;2024-01-25T05:21:47;15.77;;;4.90;;
24409;SDS011;12543;53.364;-1.504;2024-01-25T05:24:15;12.03;;;4.13;;
24409;SDS011;12543;53.364;-1.504;2024-01-25T05:26:43;13.13;;;3.58;;
24409;SDS011;12543;53.364;-1.504;2024-01-25T05:29:10;19.10;;;4.28;;
24409;SDS011;12543;53.364;-1.504;2024-01-25T05:31:38;11.82;;;3.45;;
24409;SDS011;12543;53.364;-1.504;2024-01-25T05:34:05;11.43;;;3.90;;
24409;SDS011;12543;53.364;-1.504;2024-01-25T05:36:33;14.32;;;4.05;;
24409;SDS011;12543;53.364;-1.504;2024-01-25T05:39:00;12.57;;;3.65;;
24409;SDS011;12543;53.364;-1.504;2024-01-25T05:41:33;16.45;;;4.55;;
24409;SDS011;12543;53.364;-1.504;2024-01-25T05:44:00;14.10;;;3.73;;
24409;SDS011;12543;53.364;-1.504;2024-01-25T05:46:28;16.40;;;4.75;;
24409;SDS011;12543;53.364;-1.504;2024-01-25T05:48:55;14.40;;;4.07;;
24409;SDS011;12543;53.364;-1.504;2024-01-25T05:51:23;16.30;;;4.55;;
24409;SDS011;12543;53.364;-1.504;2024-01-25T05:53:51;17.80;;;4.43;;
24409;SDS011;12543;53.364;-1.504;2024-01-25T05:56:21;15.88;;;4.47;;
24409;SDS011;12543;53.364;-1.504;2024-01-25T05:58:48;14.32;;;4.32;;
24409;SDS011;12543;53.364;-1.504;2024-01-25T06:01:16;14.43;;;4.53;;
24409;SDS011;12543;53.364;-1.504;2024-01-25T06:03:44;15.82;;;4.78;;
24409;SDS011;12543;53.364;-1.504;2024-01-25T06:06:12;15.55;;;4.60;;
24409;SDS011;12543;53.364;-1.504;2024-01-25T06:08:39;19.00;;;4.37;;
24409;SDS011;12543;53.364;-1.504;2024-01-25T06:11:09;15.10;;;4.28;;
24409;SDS011;12543;53.364;-1.504;2024-01-25T06:13:37;14.75;;;4.57;;
24409;SDS011;12543;53.364;-1.504;2024-01-25T06:16:05;13.90;;;4.80;;
24409;SDS011;12543;53.364;-1.504;2024-01-25T06:18:32;13.30;;;5.20;;
24409;SDS011;12543;53.364;-1.504;2024-01-25T06:21:00;16.75;;;5.20;;
24409;SDS011;12543;53.364;-1.504;2024-01-25T06:23:28;16.47;;;5.27;;
24409;SDS011;12543;53.364;-1.504;2024-01-25T06:25:55;21.88;;;6.28;;
24409;SDS011;12543;53.364;-1.504;2024-01-25T06:28:23;19.90;;;5.97;;
24409;SDS011;12543;53.364;-1.504;2024-01-25T06:30:52;17.55;;;5.43;;
24409;SDS011;12543;53.364;-1.504;2024-01-25T06:33:19;20.50;;;6.20;;
24409;SDS011;12543;53.364;-1.504;2024-01-25T06:35:47;16.08;;;5.65;;
24409;SDS011;12543;53.364;-1.504;2024-01-25T06:38:14;16.08;;;5.10;;
24409;SDS011;12543;53.364;-1.504;2024-01-25T06:40:42;15.88;;;5.45;;
24409;SDS011;12543;53.364;-1.504;2024-01-25T06:43:10;16.93;;;5.13;;
24409;SDS011;12543;53.364;-1.504;2024-01-25T06:45:39;24.83;;;6.35;;
24409;SDS011;12543;53.364;-1.504;2024-01-25T06:48:07;14.70;;;5.13;;
24409;SDS011;12543;53.364;-1.504;2024-01-25T06:50:37;23.05;;;5.43;;
24409;SDS011;12543;53.364;-1.504;2024-01-25T06:53:05;22.33;;;5.32;;
24409;SDS011;12543;53.364;-1.504;2024-01-25T06:55:32;18.30;;;5.25;;
24409;SDS011;12543;53.364;-1.504;2024-01-25T06:58:00;12.20;;;4.75;;
24409;SDS011;12543;53.364;-1.504;2024-01-25T07:00:27;16.60;;;4.90;;
24409;SDS011;12543;53.364;-1.504;2024-01-25T07:02:55;15.60;;;4.43;;
24409;SDS011;12543;53.364;-1.504;2024-01-25T07:05:23;17.63;;;5.93;;
24409;SDS011;12543;53.364;-1.504;2024-01-25T07:07:51;17.87;;;5.77;;
24409;SDS011;12543;53.364;-1.504;2024-01-25T07:10:18;17.98;;;4.45;;
24409;SDS011;12543;53.364;-1.504;2024-01-25T07:12:46;16.45;;;4.82;;
24409;SDS011;12543;53.364;-1.504;2024-01-25T07:15:14;21.50;;;5.07;;
24409;SDS011;12543;53.364;-1.504;2024-01-25T07:17:41;21.60;;;5.78;;
24409;SDS011;12543;53.364;-1.504;2024-01-25T07:20:09;15.98;;;5.43;;
24409;SDS011;12543;53.364;-1.504;2024-01-25T07:22:37;20.10;;;5.43;;
24409;SDS011;12543;53.364;-1.504;2024-01-25T07:25:05;19.13;;;5.35;;
24409;SDS011;12543;53.364;-1.504;2024-01-25T07:27:33;18.73;;;5.70;;
24409;SDS011;12543;53.364;-1.504;2024-01-25T07:30:00;18.45;;;5.80;;
24409;SDS011;12543;53.364;-1.504;2024-01-25T07:32:28;16.30;;;5.23;;
24409;SDS011;12543;53.364;-1.504;2024-01-25T07:34:56;17.47;;;5.67;;
24409;SDS011;12543;53.364;-1.504;2024-01-25T07:37:24;25.45;;;6.15;;
24409;SDS011;12543;53.364;-1.504;2024-01-25T07:39:52;15.40;;;5.57;;
24409;SDS011;12543;53.364;-1.504;2024-01-25T07:42:19;15.05;;;5.75;;
24409;SDS011;12543;53.364;-1.504;2024-01-25T07:44:47;15.15;;;5.53;;
24409;SDS011;12543;53.364;-1.504;2024-01-25T07:47:14;13.52;;;4.70;;
24409;SDS011;12543;53.364;-1.504;2024-01-25T07:49:42;23.60;;;8.18;;
24409;SDS011;12543;53.364;-1.504;2024-01-25T07:52:10;19.00;;;5.80;;
24409;SDS011;12543;53.364;-1.504;2024-01-25T07:54:38;18.70;;;5.97;;
24409;SDS011;12543;53.364;-1.504;2024-01-25T07:57:05;14.23;;;5.85;;
24409;SDS011;12543;53.364;-1.504;2024-01-25T07:59:33;20.60;;;6.72;;
24409;SDS011;12543;53.364;-1.504;2024-01-25T08:02:01;12.68;;;5.82;;
24409;SDS011;12543;53.364;-1.504;2024-01-25T08:04:29;13.88;;;5.90;;
24409;SDS011;12543;53.364;-1.504;2024-01-25T08:06:57;17.67;;;6.18;;
24409;SDS011;12543;53.364;-1.504;2024-01-25T08:09:25;17.30;;;6.15;;
24409;SDS011;12543;53.364;-1.504;2024-01-25T08:11:53;15.27;;;6.25;;
24409;SDS011;12543;53.364;-1.504;2024-01-25T08:14:20;16.63;;;6.03;;
24409;SDS011;12543;53.364;-1.504;2024-01-25T08:16:48;13.77;;;5.65;;
24409;SDS011;12543;53.364;-1.504;2024-01-25T08:19:16;12.70;;;5.93;;
24409;SDS011;12543;53.364;-1.504;2024-01-25T08:21:44;12.07;;;5.68;;
24409;SDS011;12543;53.364;-1.504;2024-01-25T08:24:13;14.13;;;5.75;;
24409;SDS011;12543;53.364;-1.504;2024-01-25T08:26:40;10.60;;;5.22;;
24409;SDS011;12543;53.364;-1.504;2024-01-25T08:29:08;11.50;;;5.18;;
24409;SDS011;12543;53.364;-1.504;2024-01-25T08:31:35;13.45;;;5.43;;
24409;SDS011;12543;53.364;-1.504;2024-01-25T08:34:03;11.18;;;4.60;;
24409;SDS011;12543;53.364;-1.504;2024-01-25T08:36:31;10.05;;;5.00;;
24409;SDS011;12543;53.364;-1.504;2024-01-25T08:38:59;12.38;;;5.80;;
24409;SDS011;12543;53.364;-1.504;2024-01-25T08:41:26;11.45;;;5.28;;
24409;SDS011;12543;53.364;-1.504;2024-01-25T08:43:58;10.50;;;5.70;;
24409;SDS011;12543;53.364;-1.504;2024-01-25T08:46:26;10.43;;;5.13;;
24409;SDS011;12543;53.364;-1.504;2024-01-25T08:48:54;10.33;;;4.90;;
24409;SDS011;12543;53.364;-1.504;2024-01-25T08:51:22;10.70;;;4.43;;
24409;SDS011;12543;53.364;-1.504;2024-01-25T08:53:49;6.18;;;4.18;;
24409;SDS011;12543;53.364;-1.504;2024-01-25T08:56:17;6.63;;;4.15;;
24409;SDS011;12543;53.364;-1.504;2024-01-25T08:58:45;7.13;;;4.03;;
24409;SDS011;12543;53.364;-1.504;2024-01-25T09:01:14;8.05;;;3.88;;
24409;SDS011;12543;53.364;-1.504;2024-01-25T09:03:41;10.88;;;3.95;;
24409;SDS011;12543;53.364;-1.504;2024-01-25T09:06:09;6.03;;;3.80;;
24409;SDS011;12543;53.364;-1.504;2024-01-25T09:08:37;7.07;;;3.88;;
24409;SDS011;12543;53.364;-1.504;2024-01-25T09:11:05;5.90;;;4.05;;
24409;SDS011;12543;53.364;-1.504;2024-01-25T09:13:32;6.68;;;4.38;;
24409;SDS011;12543;53.364;-1.504;2024-01-25T09:16:11;9.98;;;5.05;;
24409;SDS011;12543;53.364;-1.504;2024-01-25T09:18:39;11.75;;;5.43;;
24409;SDS011;12543;53.364;-1.504;2024-01-25T09:21:07;10.65;;;5.93;;
24409;SDS011;12543;53.364;-1.504;2024-01-25T09:23:35;13.00;;;6.25;;
24409;SDS011;12543;53.364;-1.504;2024-01-25T09:26:02;9.15;;;5.97;;
24409;SDS011;12543;53.364;-1.504;2024-01-25T09:28:30;13.98;;;7.63;;
24409;SDS011;12543;53.364;-1.504;2024-01-25T09:30:58;14.52;;;7.57;;
24409;SDS011;12543;53.364;-1.504;2024-01-25T09:33:25;9.30;;;6.97;;
24409;SDS011;12543;53.364;-1.504;2024-01-25T09:35:53;12.30;;;6.90;;
24409;SDS011;12543;53.364;-1.504;2024-01-25T09:38:21;9.57;;;6.60;;
24409;SDS011;12543;53.364;-1.504;2024-01-25T09:40:49;12.85;;;7.20;;
24409;SDS011;12543;53.364;-1.504;2024-01-25T09:43:18;11.98;;;7.43;;
24409;SDS011;12543;53.364;-1.504;2024-01-25T09:45:50;12.95;;;7.13;;
24409;SDS011;12543;53.364;-1.504;2024-01-25T09:48:22;9.60;;;6.82;;
24409;SDS011;12543;53.364;-1.504;2024-01-25T09:50:50;10.38;;;6.00;;
24409;SDS011;12543;53.364;-1.504;2024-01-25T09:55:46;11.38;;;7.30;;
24409;SDS011;12543;53.364;-1.504;2024-01-25T09:58:16;12.00;;;7.68;;
24409;SDS011;12543;53.364;-1.504;2024-01-25T10:00:44;11.55;;;6.95;;
24409;SDS011;12543;53.364;-1.504;2024-01-25T10:03:11;9.33;;;6.70;;
24409;SDS011;12543;53.364;-1.504;2024-01-25T10:05:39;9.00;;;6.55;;
24409;SDS011;12543;53.364;-1.504;2024-01-25T10:08:12;8.80;;;6.90;;
24409;SDS011;12543;53.364;-1.504;2024-01-25T10:10:40;9.32;;;6.95;;
24409;SDS011;12543;53.364;-1.504;2024-01-25T10:13:11;9.95;;;6.93;;
24409;SDS011;12543;53.364;-1.504;2024-01-25T10:15:39;12.80;;;7.80;;
24409;SDS011;12543;53.364;-1.504;2024-01-25T10:18:08;10.57;;;7.45;;
24409;SDS011;12543;53.364;-1.504;2024-01-25T10:20:54;10.38;;;6.95;;
24409;SDS011;12543;53.364;-1.504;2024-01-25T10:23:22;11.63;;;7.57;;
24409;SDS011;12543;53.364;-1.504;2024-01-25T10:25:52;12.90;;;7.68;;
24409;SDS011;12543;53.364;-1.504;2024-01-25T10:28:20;12.32;;;7.88;;
24409;SDS011;12543;53.364;-1.504;2024-01-25T10:30:47;12.45;;;8.10;;
24409;SDS011;12543;53.364;-1.504;2024-01-25T10:33:15;12.27;;;7.72;;
24409;SDS011;12543;53.364;-1.504;2024-01-25T10:35:44;11.45;;;8.13;;
24409;SDS011;12543;53.364;-1.504;2024-01-25T10:38:17;12.20;;;8.38;;
24409;SDS011;12543;53.364;-1.504;2024-01-25T10:40:46;11.25;;;8.23;;
24409;SDS011;12543;53.364;-1.504;2024-01-25T10:43:15;11.52;;;7.68;;
24409;SDS011;12543;53.364;-1.504;2024-01-25T10:45:43;13.23;;;8.35;;
24409;SDS011;12543;53.364;-1.504;2024-01-25T10:48:11;13.93;;;8.77;;
24409;SDS011;12543;53.364;-1.504;2024-01-25T10:50:39;11.90;;;8.27;;
24409;SDS011;12543;53.364;-1.504;2024-01-25T10:53:07;10.90;;;8.15;;
24409;SDS011;12543;53.364;-1.504;2024-01-25T10:55:37;12.52;;;7.60;;
24409;SDS011;12543;53.364;-1.504;2024-01-25T10:58:06;12.30;;;7.93;;
24409;SDS011;12543;53.364;-1.504;2024-01-25T11:00:35;12.07;;;8.60;;
24409;SDS011;12543;53.364;-1.504;2024-01-25T11:03:03;10.15;;;8.40;;
24409;SDS011;12543;53.364;-1.504;2024-01-25T11:05:32;11.73;;;8.45;;
24409;SDS011;12543;53.364;-1.504;2024-01-25T11:08:00;10.17;;;7.67;;
24409;SDS011;12543;53.364;-1.504;2024-01-25T11:10:27;9.95;;;7.00;;
24409;SDS011;12543;53.364;-1.504;2024-01-25T11:12:56;12.82;;;8.00;;
24409;SDS011;12543;53.364;-1.504;2024-01-25T11:17:52;11.63;;;7.15;;
24409;SDS011;12543;53.364;-1.504;2024-01-25T11:20:24;12.73;;;7.93;;
24409;SDS011;12543;53.364;-1.504;2024-01-25T11:22:55;9.98;;;7.05;;
24409;SDS011;12543;53.364;-1.504;2024-01-25T11:25:26;9.98;;;7.75;;
24409;SDS011;12543;53.364;-1.504;2024-01-25T11:27:54;9.50;;;6.45;;
24409;SDS011;12543;53.364;-1.504;2024-01-25T11:30:22;11.48;;;7.88;;
24409;SDS011;12543;53.364;-1.504;2024-01-25T11:32:50;11.45;;;7.35;;
24409;SDS011;12543;53.364;-1.504;2024-01-25T11:35:17;10.40;;;7.25;;
24409;SDS011;12543;53.364;-1.504;2024-01-25T11:37:47;8.85;;;6.72;;
24409;SDS011;12543;53.364;-1.504;2024-01-25T11:40:15;12.48;;;8.48;;
24409;SDS011;12543;53.364;-1.504;2024-01-25T11:42:44;11.00;;;7.88;;
24409;SDS011;12543;53.364;-1.504;2024-01-25T11:45:11;14.02;;;8.07;;
24409;SDS011;12543;53.364;-1.504;2024-01-25T11:47:41;11.90;;;7.82;;
24409;SDS011;12543;53.364;-1.504;2024-01-25T11:50:10;11.65;;;8.10;;
24409;SDS011;12543;53.364;-1.504;2024-01-25T11:52:38;10.65;;;7.70;;
24409;SDS011;12543;53.364;-1.504;2024-01-25T11:55:09;8.80;;;7.10;;
24409;SDS011;12543;53.364;-1.504;2024-01-25T11:57:38;9.60;;;6.90;;
24409;SDS011;12543;53.364;-1.504;2024-01-25T12:00:08;10.88;;;7.90;;
24409;SDS011;12543;53.364;-1.504;2024-01-25T12:02:36;9.70;;;6.72;;
24409;SDS011;12543;53.364;-1.504;2024-01-25T12:05:04;13.93;;;7.78;;
24409;SDS011;12543;53.364;-1.504;2024-01-25T12:10:03;9.45;;;5.93;;
24409;SDS011;12543;53.364;-1.504;2024-01-25T12:12:31;12.07;;;6.78;;
24409;SDS011;12543;53.364;-1.504;2024-01-25T12:14:59;7.50;;;5.47;;
24409;SDS011;12543;53.364;-1.504;2024-01-25T12:17:30;8.70;;;5.82;;
24409;SDS011;12543;53.364;-1.504;2024-01-25T12:19:58;6.45;;;5.57;;
24409;SDS011;12543;53.364;-1.504;2024-01-25T12:22:29;10.40;;;6.75;;
24409;SDS011;12543;53.364;-1.504;2024-01-25T12:25:05;9.48;;;6.07;;
24409;SDS011;12543;53.364;-1.504;2024-01-25T12:27:33;9.43;;;6.43;;
24409;SDS011;12543;53.364;-1.504;2024-01-25T12:30:05;9.00;;;6.47;;
24409;SDS011;12543;53.364;-1.504;2024-01-25T12:32:34;9.18;;;6.45;;
24409;SDS011;12543;53.364;-1.504;2024-01-25T12:35:04;9.13;;;5.25;;
24409;SDS011;12543;53.364;-1.504;2024-01-25T12:37:33;7.07;;;5.75;;
24409;SDS011;12543;53.364;-1.504;2024-01-25T12:40:01;9.60;;;6.50;;
24409;SDS011;12543;53.364;-1.504;2024-01-25T12:42:29;8.52;;;5.68;;
24409;SDS011;12543;53.364;-1.504;2024-01-25T12:44:57;7.13;;;5.22;;
24409;SDS011;12543;53.364;-1.504;2024-01-25T12:47:25;6.85;;;5.30;;
24409;SDS011;12543;53.364;-1.504;2024-01-25T12:49:55;7.68;;;5.43;;
24409;SDS011;12543;53.364;-1.504;2024-01-25T12:52:23;9.20;;;6.30;;
24409;SDS011;12543;53.364;-1.504;2024-01-25T12:54:50;8.65;;;5.50;;
24409;SDS011;12543;53.364;-1.504;2024-01-25T12:57:19;8.43;;;5.65;;
24409;SDS011;12543;53.364;-1.504;2024-01-25T12:59:46;6.90;;;5.90;;
24409;SDS011;12543;53.364;-1.504;2024-01-25T13:02:14;8.88;;;6.38;;
24409;SDS011;12543;53.364;-1.504;2024-01-25T13:04:42;6.03;;;5.38;;
24409;SDS011;12543;53.364;-1.504;2024-01-25T13:07:09;9.00;;;6.27;;
24409;SDS011;12543;53.364;-1.504;2024-01-25T13:09:37;5.78;;;5.18;;
24409;SDS011;12543;53.364;-1.504;2024-01-25T13:12:04;7.80;;;5.43;;
24409;SDS011;12543;53.364;-1.504;2024-01-25T13:14:32;5.10;;;4.60;;
24409;SDS011;12543;53.364;-1.504;2024-01-25T13:17:00;7.03;;;4.60;;
24409;SDS011;12543;53.364;-1.504;2024-01-25T13:19:27;6.35;;;4.28;;
24409;SDS011;12543;53.364;-1.504;2024-01-25T13:21:55;6.70;;;4.63;;
24409;SDS011;12543;53.364;-1.504;2024-01-25T13:24:22;4.90;;;4.37;;
24409;SDS011;12543;53.364;-1.504;2024-01-25T13:26:50;5.47;;;3.88;;
24409;SDS011;12543;53.364;-1.504;2024-01-25T13:29:18;5.43;;;4.10;;
24409;SDS011;12543;53.364;-1.504;2024-01-25T13:31:45;6.32;;;4.43;;
24409;SDS011;12543;53.364;-1.504;2024-01-25T13:34:14;6.68;;;4.22;;
24409;SDS011;12543;53.364;-1.504;2024-01-25T13:36:41;6.53;;;4.17;;
24409;SDS011;12543;53.364;-1.504;2024-01-25T13:39:09;5.15;;;4.25;;
24409;SDS011;12543;53.364;-1.504;2024-01-25T13:41:37;5.23;;;3.70;;
24409;SDS011;12543;53.364;-1.504;2024-01-25T13:44:04;5.97;;;3.90;;
24409;SDS011;12543;53.364;-1.504;2024-01-25T13:46:31;4.28;;;3.05;;
24409;SDS011;12543;53.364;-1.504;2024-01-25T13:48:59;5.07;;;3.00;;
24409;SDS011;12543;53.364;-1.504;2024-01-25T13:51:26;5.73;;;3.03;;
24409;SDS011;12543;53.364;-1.504;2024-01-25T13:53:54;3.78;;;2.60;;
24409;SDS011;12543;53.364;-1.504;2024-01-25T13:56:21;6.55;;;4.40;;
24409;SDS011;12543;53.364;-1.504;2024-01-25T13:58:49;5.88;;;4.20;;
24409;SDS011;12543;53.364;-1.504;2024-01-25T14:01:16;6.90;;;5.22;;
24409;SDS011;12543;53.364;-1.504;2024-01-25T14:03:44;9.00;;;5.83;;
24409;SDS011;12543;53.364;-1.504;2024-01-25T14:06:12;7.30;;;5.68;;
24409;SDS011;12543;53.364;-1.504;2024-01-25T14:08:40;10.57;;;6.50;;
24409;SDS011;12543;53.364;-1.504;2024-01-25T14:11:08;10.75;;;6.03;;
24409;SDS011;12543;53.364;-1.504;2024-01-25T14:13:36;8.98;;;5.72;;
24409;SDS011;12543;53.364;-1.504;2024-01-25T14:16:04;10.75;;;5.60;;
24409;SDS011;12543;53.364;-1.504;2024-01-25T14:18:40;7.53;;;5.63;;
24409;SDS011;12543;53.364;-1.504;2024-01-25T14:21:08;6.45;;;4.32;;
24409;SDS011;12543;53.364;-1.504;2024-01-25T14:23:37;5.57;;;3.90;;
24409;SDS011;12543;53.364;-1.504;2024-01-25T14:26:04;7.25;;;4.60;;
24409;SDS011;12543;53.364;-1.504;2024-01-25T14:28:32;5.35;;;4.25;;
24409;SDS011;12543;53.364;-1.504;2024-01-25T14:30:59;6.63;;;3.88;;
24409;SDS011;12543;53.364;-1.504;2024-01-25T14:33:27;5.57;;;3.30;;
24409;SDS011;12543;53.364;-1.504;2024-01-25T14:35:55;5.25;;;3.63;;